Time;durP1;ratioP1;P1;durP2;ratioP2;P2;SDS_P1;SDS_P2;PMS_P1;PMS_P2;Temp;Humidity;BMP_temperature;BMP_pressure;BME280_temperature;BME280_humidity;BME280_pressure;Samples;Min_cycle;Max_cycle;Signal;HPM_P1;HPM_P2
2023/09/21 00:00:27;;;;;;;4.57;1.73;;;;;;;17.51;73.98;100123.47;7393586;19;19954;-64
2023/09/21 00:02:57;;;;;;;4.55;1.83;;;;;;;17.50;73.88;100135.44;7391220;19;19998;-64
2023/09/21 00:05:47;;;;;;;6.13;1.50;;;;;;;17.48;73.80;100132.09;7393913;19;19918;-64
2023/09/21 00:08:36;;;;;;;2.38;1.65;;;;;;;17.47;74.17;100125.84;7393843;19;19926;-64
2023/09/21 00:11:06;;;;;;;2.45;1.60;;;;;;;17.50;73.87;100129.97;7395525;19;20313;-64
2023/09/21 00:13:39;;;;;;;3.65;1.70;;;;;;;17.49;74.02;100122.88;7401777;19;19922;-64
2023/09/21 00:16:27;;;;;;;3.28;1.50;;;;;;;17.47;74.00;100123.13;7400417;19;19922;-64
2023/09/21 00:18:56;;;;;;;3.03;1.65;;;;;;;17.46;73.97;100117.91;7401511;19;19928;-64
2023/09/21 00:21:25;;;;;;;5.20;1.65;;;;;;;17.44;74.16;100128.19;7401446;19;19933;-64
2023/09/21 00:23:54;;;;;;;3.70;1.63;;;;;;;17.43;73.85;100118.41;7402079;19;19952;-64
2023/09/21 00:26:23;;;;;;;3.42;1.80;;;;;;;17.43;73.76;100121.13;7398117;19;19930;-64
2023/09/21 00:28:54;;;;;;;4.50;1.65;;;;;;;17.42;74.22;100114.84;7399070;19;19939;-64
2023/09/21 00:31:42;;;;;;;4.45;1.80;;;;;;;17.38;74.36;100108.22;7398454;19;19952;-64
2023/09/21 00:34:11;;;;;;;2.55;1.88;;;;;;;17.38;74.26;100101.94;7393675;19;20627;-65
2023/09/21 00:36:42;;;;;;;3.65;1.45;;;;;;;17.36;74.11;100094.00;7401098;19;19926;-64
2023/09/21 00:39:12;;;;;;;3.35;1.75;;;;;;;17.36;74.55;100091.28;7399815;19;20311;-64
2023/09/21 00:42:01;;;;;;;2.97;1.33;;;;;;;17.33;74.70;100088.22;7399329;19;19919;-64
2023/09/21 00:44:33;;;;;;;7.15;1.90;;;;;;;17.32;74.32;100089.28;7402550;19;19963;-65
2023/09/21 00:47:21;;;;;;;3.85;1.55;;;;;;;17.30;74.51;100084.06;7398051;19;19926;-64
2023/09/21 00:49:50;;;;;;;4.40;2.28;;;;;;;17.29;74.66;100073.44;7398946;19;19950;-65
2023/09/21 00:52:40;;;;;;;4.30;1.83;;;;;;;17.27;74.63;100070.13;7395705;19;19918;-66
2023/09/21 00:55:11;;;;;;;5.45;1.65;;;;;;;17.25;74.45;100070.38;7400569;19;20460;-66
2023/09/21 00:58:05;;;;;;;4.10;1.77;;;;;;;17.21;74.60;100058.31;7396775;19;19923;-65
2023/09/21 01:00:59;;;;;;;3.97;1.50;;;;;;;17.22;74.66;100060.78;7399672;19;19922;-65
2023/09/21 01:03:28;;;;;;;4.32;1.73;;;;;;;17.25;74.42;100059.50;7396738;19;19930;-66
2023/09/21 01:05:57;;;;;;;4.60;2.10;;;;;;;17.27;74.65;100051.06;7400812;19;19922;-66
2023/09/21 01:08:34;;;;;;;4.30;1.50;;;;;;;17.25;74.39;100045.88;7400934;19;19936;-65
2023/09/21 01:11:07;;;;;;;2.45;1.30;;;;;;;17.25;74.32;100045.88;7398317;19;19933;-65
2023/09/21 01:13:37;;;;;;;3.03;1.90;;;;;;;17.24;74.52;100034.16;7398742;19;19920;-66
2023/09/21 01:16:11;;;;;;;3.17;1.80;;;;;;;17.23;74.78;100035.22;7401027;19;20674;-65
2023/09/21 01:18:40;;;;;;;3.05;1.30;;;;;;;17.23;74.68;100031.66;7401515;19;19919;-65
2023/09/21 01:21:10;;;;;;;3.50;1.58;;;;;;;17.22;74.75;100036.28;7399340;19;20396;-65
2023/09/21 01:23:45;;;;;;;4.75;1.92;;;;;;;17.20;74.87;100041.16;7396335;19;20318;-66
2023/09/21 01:26:14;;;;;;;5.13;1.70;;;;;;;17.19;74.67;100025.88;7398225;19;19927;-65
2023/09/21 01:29:03;;;;;;;3.70;1.60;;;;;;;17.18;74.74;100023.38;7396253;19;20313;-65
2023/09/21 01:31:32;;;;;;;2.97;1.20;;;;;;;17.17;74.43;100019.84;7399676;19;19926;-65
2023/09/21 01:34:03;;;;;;;3.75;1.50;;;;;;;17.17;74.91;100008.94;7394156;19;20368;-66
2023/09/21 01:36:54;;;;;;;2.67;1.50;;;;;;;17.18;74.50;100012.50;7397299;19;19918;-65
2023/09/21 01:39:26;;;;;;;3.17;1.60;;;;;;;17.17;74.94;100008.94;7399808;19;19915;-65
2023/09/21 01:41:55;;;;;;;2.90;1.77;;;;;;;17.17;74.43;100011.66;7400138;19;19922;-65
2023/09/21 01:44:24;;;;;;;3.83;1.80;;;;;;;17.18;74.45;100007.88;7398710;19;19982;-65
2023/09/21 01:46:53;;;;;;;5.15;1.80;;;;;;;17.19;74.55;100004.09;7395901;19;19918;-66
2023/09/21 01:49:22;;;;;;;6.72;1.75;;;;;;;17.19;74.51;99998.66;7400072;19;19958;-66
2023/09/21 01:52:11;;;;;;;3.10;1.40;;;;;;;17.21;74.70;100006.59;7399316;19;19922;-66
2023/09/21 01:54:43;;;;;;;4.85;1.65;;;;;;;17.22;74.37;99995.44;7399222;19;20344;-66
2023/09/21 01:57:11;;;;;;;4.30;1.83;;;;;;;17.22;74.52;99979.13;7399389;19;19922;-65
2023/09/21 02:00:01;;;;;;;3.33;1.02;;;;;;;17.23;74.55;99972.59;7397415;19;20256;-66
2023/09/21 02:02:29;;;;;;;7.65;1.60;;;;;;;17.23;74.09;99979.94;7395969;19;19921;-65
2023/09/21 02:04:58;;;;;;;3.38;1.75;;;;;;;17.23;74.21;99977.22;7398835;19;19947;-65
2023/09/21 02:07:28;;;;;;;2.95;1.55;;;;;;;17.20;74.51;99975.81;7400041;19;19919;-65
2023/09/21 02:10:01;;;;;;;3.60;1.50;;;;;;;17.19;74.23;99968.72;7398499;19;19925;-65
2023/09/21 02:12:57;;;;;;;4.28;1.70;;;;;;;17.15;74.67;99964.00;7395114;19;19978;-65
2023/09/21 02:15:27;;;;;;;4.65;1.70;;;;;;;17.17;74.34;99964.59;7399638;19;19934;-65
2023/09/21 02:17:57;;;;;;;3.60;2.13;;;;;;;17.16;74.34;99952.88;7400009;19;19952;-66
2023/09/21 02:20:27;;;;;;;2.83;1.55;;;;;;;17.17;74.40;99954.50;7397368;19;20635;-65
2023/09/21 02:22:58;;;;;;;4.07;1.63;;;;;;;17.17;74.03;99942.81;7399717;19;19929;-65
2023/09/21 02:25:34;;;;;;;4.70;1.38;;;;;;;17.16;73.90;99947.44;7399218;19;19959;-65
2023/09/21 02:28:23;;;;;;;4.40;1.50;;;;;;;17.15;74.26;99940.34;7396899;19;19961;-66
2023/09/21 02:31:13;;;;;;;3.42;1.48;;;;;;;17.12;74.47;99937.28;7396796;19;20013;-67
2023/09/21 02:34:02;;;;;;;2.83;1.30;;;;;;;17.13;74.57;99938.91;7391783;19;20407;-65
2023/09/21 02:36:52;;;;;;;3.25;1.40;;;;;;;17.09;74.36;99933.13;7396398;19;19933;-65
2023/09/21 02:39:43;;;;;;;3.92;1.35;;;;;;;17.07;74.42;99935.28;7397677;19;19914;-65
2023/09/21 02:42:14;;;;;;;4.18;1.50;;;;;;;17.06;74.19;99941.78;7398363;19;19930;-66
2023/09/21 02:44:46;;;;;;;3.10;1.35;;;;;;;17.05;74.10;99934.69;7399350;19;19923;-66
2023/09/21 02:47:14;;;;;;;4.25;1.55;;;;;;;17.06;74.67;99927.34;7397999;19;19934;-65
2023/09/21 02:50:09;;;;;;;2.53;1.15;;;;;;;17.05;74.42;99931.13;7396802;19;20482;-66
2023/09/21 02:53:01;;;;;;;2.00;1.30;;;;;;;17.04;74.25;99921.34;7397146;19;20015;-65
2023/09/21 02:55:31;;;;;;;1.83;1.30;;;;;;;17.05;74.27;99921.06;7398406;19;19914;-65
2023/09/21 02:58:22;;;;;;;;;;;;;;;16.90;74.75;99918.06;7398651;19;19970;-66
2023/09/21 03:01:11;;;;;;;3.45;1.20;;;;;;;17.03;74.38;99908.78;7395255;19;19923;-65
2023/09/21 03:04:03;;;;;;;3.30;1.40;;;;;;;17.03;74.49;99912.34;7394337;19;19919;-65
2023/09/21 03:06:33;;;;;;;3.03;1.35;;;;;;;17.05;73.92;99915.63;7398240;19;19988;-65
2023/09/21 03:09:22;;;;;;;2.78;1.63;;;;;;;17.07;73.99;99910.78;7397492;19;20305;-66
2023/09/21 03:11:51;;;;;;;2.67;1.38;;;;;;;17.08;74.07;99900.72;7396880;19;19927;-65
2023/09/21 03:14:25;;;;;;;2.38;1.38;;;;;;;17.11;73.71;99894.78;7398666;19;20369;-65
2023/09/21 03:16:53;;;;;;;2.55;1.35;;;;;;;17.12;73.90;99899.19;7396208;19;19927;-65
2023/09/21 03:19:22;;;;;;;2.05;1.23;;;;;;;17.13;74.17;99895.34;7398110;19;19918;-66
2023/09/21 03:21:51;;;;;;;2.28;1.20;;;;;;;17.15;73.65;99888.63;7396761;19;19955;-66
2023/09/21 03:24:20;;;;;;;3.25;1.20;;;;;;;17.18;73.74;99901.72;7398563;19;19918;-68
2023/09/21 03:26:50;;;;;;;2.13;1.10;;;;;;;17.23;73.30;99892.84;7396100;19;19926;-65
2023/09/21 03:29:18;;;;;;;2.17;1.38;;;;;;;17.28;72.82;99892.94;7396189;19;19918;-65
2023/09/21 03:32:10;;;;;;;3.05;1.13;;;;;;;17.33;72.91;99886.75;7395796;19;20246;-66
2023/09/21 03:34:40;;;;;;;2.40;1.10;;;;;;;17.34;72.84;99891.97;7393436;19;19926;-65
2023/09/21 03:37:30;;;;;;;2.63;1.27;;;;;;;17.39;72.32;99891.22;7395217;19;20366;-66
2023/09/21 03:39:58;;;;;;;3.10;1.50;;;;;;;17.44;72.34;99885.84;7397214;19;19943;-65
2023/09/21 03:42:47;;;;;;;1.98;1.33;;;;;;;17.43;72.34;99886.94;7394447;19;20253;-66
2023/09/21 03:45:16;;;;;;;3.63;1.20;;;;;;;17.43;72.24;99895.91;7397959;19;20357;-65
2023/09/21 03:47:47;;;;;;;3.72;1.10;;;;;;;17.42;72.10;99880.69;7402680;19;19958;-65
2023/09/21 03:50:36;;;;;;;2.72;1.48;;;;;;;17.42;72.04;99882.56;7401365;19;20369;-66
2023/09/21 03:53:08;;;;;;;2.25;1.20;;;;;;;17.41;72.18;99881.75;7401138;19;20395;-65
2023/09/21 03:56:01;;;;;;;3.97;1.20;;;;;;;17.37;72.32;99883.31;7399933;19;19923;-65
2023/09/21 03:58:30;;;;;;;2.63;1.17;;;;;;;17.34;72.63;99877.53;7400128;19;19918;-65
2023/09/21 04:01:21;;;;;;;2.28;1.10;;;;;;;17.30;72.47;99882.63;7401282;19;19964;-66
2023/09/21 04:04:17;;;;;;;2.60;1.30;;;;;;;17.28;72.53;99873.06;7396943;19;20005;-65
2023/09/21 04:06:46;;;;;;;2.47;1.13;;;;;;;17.28;72.67;99873.06;7399851;19;19919;-65
2023/09/21 04:09:16;;;;;;;2.67;1.38;;;;;;;17.28;72.91;99878.50;7402041;19;19948;-65
2023/09/21 04:11:44;;;;;;;2.08;1.48;;;;;;;17.30;72.82;99874.44;7401462;19;19922;-66
2023/09/21 04:14:33;;;;;;;2.42;1.30;;;;;;;17.31;72.33;99873.38;7401030;19;19926;-65
2023/09/21 04:17:21;;;;;;;1.52;1.00;;;;;;;17.34;71.98;99872.91;7400288;19;19953;-65
2023/09/21 04:19:54;;;;;;;1.63;1.02;;;;;;;17.36;71.85;99873.47;7399346;19;21226;-66
2023/09/21 04:22:23;;;;;;;3.17;1.15;;;;;;;17.39;72.17;99869.44;7401897;19;19922;-66
2023/09/21 04:24:51;;;;;;;2.22;1.33;;;;;;;17.40;72.21;99882.81;7401646;19;19949;-65
2023/09/21 04:27:23;;;;;;;2.55;1.23;;;;;;;17.41;71.77;99873.56;7398985;19;19942;-65
2023/09/21 04:29:52;;;;;;;2.78;1.23;;;;;;;17.42;71.66;99871.69;7397573;19;19943;-65
2023/09/21 04:32:20;;;;;;;2.20;1.30;;;;;;;17.40;71.75;99865.63;7398795;19;19919;-65
2023/09/21 04:34:51;;;;;;;2.47;1.10;;;;;;;17.40;72.20;99871.09;7398850;19;19918;-65
2023/09/21 04:37:40;;;;;;;4.00;1.67;;;;;;;17.39;72.01;99872.97;7398224;19;20017;-65
2023/09/21 04:40:11;;;;;;;3.10;1.42;;;;;;;17.38;72.04;99862.34;7400899;19;19918;-66
2023/09/21 04:43:00;;;;;;;3.55;1.27;;;;;;;17.36;71.88;99867.19;7398597;19;20245;-65
2023/09/21 04:45:32;;;;;;;2.92;1.10;;;;;;;17.34;72.31;99866.63;7401391;19;20291;-66
2023/09/21 04:48:03;;;;;;;;;;;;;;;17.16;72.63;99865.78;7402695;19;19935;-65
2023/09/21 04:50:34;;;;;;;2.55;1.13;;;;;;;17.24;72.55;99862.66;7401101;19;20352;-65
2023/09/21 04:53:03;;;;;;;3.08;1.40;;;;;;;17.22;72.36;99859.34;7400755;19;19926;-65
2023/09/21 04:55:32;;;;;;;2.45;1.40;;;;;;;17.21;72.45;99856.88;7399131;19;20568;-65
2023/09/21 04:58:01;;;;;;;2.80;1.20;;;;;;;17.19;72.75;99857.13;7399115;19;19922;-65
2023/09/21 05:00:30;;;;;;;2.03;1.30;;;;;;;17.17;73.40;99858.44;7398180;19;19926;-65
2023/09/21 05:02:59;;;;;;;4.07;1.33;;;;;;;17.11;73.58;99856.69;7394483;19;19930;-65
2023/09/21 05:05:52;;;;;;;2.45;1.40;;;;;;;17.05;73.45;99854.94;7393099;19;19930;-65
2023/09/21 05:08:21;;;;;;;2.03;1.23;;;;;;;17.00;73.40;99847.50;7397816;19;19930;-65
2023/09/21 05:10:51;;;;;;;2.90;1.10;;;;;;;16.96;73.62;99854.50;7397481;19;19971;-65
2023/09/21 05:13:20;;;;;;;2.75;1.23;;;;;;;16.91;74.05;99849.00;7397464;19;19919;-65
2023/09/21 05:15:51;;;;;;;2.15;1.17;;;;;;;16.88;74.12;99845.91;7395549;19;19926;-65
2023/09/21 05:18:20;;;;;;;3.22;1.60;;;;;;;16.84;74.11;99853.72;7398154;19;20352;-65
2023/09/21 05:20:51;;;;;;;2.15;1.30;;;;;;;16.81;74.61;99851.50;7396601;19;20306;-65
2023/09/21 05:23:20;;;;;;;2.40;1.35;;;;;;;16.76;74.72;99843.25;7398982;19;21367;-65
2023/09/21 05:25:49;;;;;;;3.38;1.50;;;;;;;16.75;74.84;99842.41;7397361;19;19934;-65
2023/09/21 05:28:19;;;;;;;1.90;1.33;;;;;;;16.74;74.85;99848.06;7397881;19;19947;-65
2023/09/21 05:30:49;;;;;;;4.30;1.23;;;;;;;16.73;74.56;99844.56;7398478;19;19980;-66
2023/09/21 05:33:18;;;;;;;3.50;1.23;;;;;;;16.74;74.68;99848.91;7395576;19;19926;-65
2023/09/21 05:36:10;;;;;;;3.60;1.20;;;;;;;16.72;74.93;99848.34;7396061;19;19926;-65
2023/09/21 05:39:01;;;;;;;3.22;1.40;;;;;;;16.77;74.77;99850.34;7395355;19;19931;-65
2023/09/21 05:41:31;;;;;;;2.97;1.27;;;;;;;16.79;74.71;99861.78;7399842;19;19934;-66
2023/09/21 05:44:00;;;;;;;3.20;1.40;;;;;;;16.81;74.50;99853.38;7398579;19;20377;-66
2023/09/21 05:46:49;;;;;;;3.30;1.40;;;;;;;16.84;74.40;99851.00;7394964;19;19922;-65
2023/09/21 05:49:22;;;;;;;2.47;1.30;;;;;;;16.88;74.30;99852.16;7394235;19;19923;-66
2023/09/21 05:51:56;;;;;;;4.78;1.38;;;;;;;16.94;74.37;99853.09;7397949;19;20282;-66
2023/09/21 05:54:25;;;;;;;1.67;1.13;;;;;;;17.00;74.47;99854.88;7399146;19;19926;-66
2023/09/21 05:56:54;;;;;;;2.13;1.38;;;;;;;17.05;73.81;99855.75;7398351;19;19994;-66
2023/09/21 05:59:26;;;;;;;2.17;1.30;;;;;;;17.12;74.15;99855.63;7399137;19;20388;-65
2023/09/21 06:01:55;;;;;;;2.97;1.48;;;;;;;17.19;73.99;99862.56;7399137;19;19930;-65
2023/09/21 06:04:24;;;;;;;1.92;1.30;;;;;;;17.28;73.65;99863.00;7396816;19;19933;-66
2023/09/21 06:06:58;;;;;;;5.28;1.27;;;;;;;17.37;73.37;99866.97;7397297;19;19925;-66
2023/09/21 06:09:26;;;;;;;3.78;1.52;;;;;;;17.46;72.92;99872.84;7398574;19;19939;-66
2023/09/21 06:11:55;;;;;;;3.38;1.13;;;;;;;17.56;72.96;99873.03;7395372;19;20290;-65
2023/09/21 06:14:23;;;;;;;4.22;1.48;;;;;;;17.63;72.75;99873.69;7395936;19;19960;-65
2023/09/21 06:16:52;;;;;;;3.08;1.20;;;;;;;17.68;72.50;99868.34;7394206;19;20284;-65
2023/09/21 06:19:23;;;;;;;2.50;1.23;;;;;;;17.72;72.93;99869.50;7395619;19;19954;-65
2023/09/21 06:22:14;;;;;;;3.25;1.30;;;;;;;17.78;72.44;99871.22;7392085;19;19914;-65
2023/09/21 06:24:44;;;;;;;5.45;1.60;;;;;;;17.82;72.37;99866.91;7388505;19;19931;-65
2023/09/21 06:27:14;;;;;;;4.05;1.42;;;;;;;17.86;72.66;99868.06;7392074;19;20269;-65
2023/09/21 06:29:43;;;;;;;3.33;1.20;;;;;;;17.91;72.25;99865.44;7396403;19;19918;-65
2023/09/21 06:32:11;;;;;;;2.20;1.60;;;;;;;17.94;72.38;99861.41;7396238;19;20535;-66
2023/09/21 06:35:00;;;;;;;2.72;1.30;;;;;;;18.00;72.03;99863.94;7392383;19;20271;-65
2023/09/21 06:37:54;;;;;;;3.08;1.70;;;;;;;18.05;71.85;99855.84;7391940;19;20421;-66
2023/09/21 06:40:23;;;;;;;2.38;1.25;;;;;;;18.12;72.12;99853.75;7394993;19;19914;-65
2023/09/21 06:43:12;;;;;;;2.42;1.10;;;;;;;18.19;71.67;99858.22;7394803;19;20010;-65
2023/09/21 06:46:01;;;;;;;2.47;1.20;;;;;;;18.26;71.62;99856.13;7391624;19;19918;-65
2023/09/21 06:48:50;;;;;;;2.55;1.48;;;;;;;18.35;71.24;99849.16;7393318;19;20249;-65
2023/09/21 06:51:18;;;;;;;2.95;1.10;;;;;;;18.43;71.09;99855.00;7396871;19;19923;-65
2023/09/21 06:53:50;;;;;;;2.72;1.45;;;;;;;18.51;70.48;99845.53;7396220;19;20349;-66
2023/09/21 06:56:21;;;;;;;2.42;1.30;;;;;;;18.59;70.41;99847.88;7396501;19;19929;-65
2023/09/21 06:59:10;;;;;;;1.33;1.05;;;;;;;18.65;70.46;99844.13;7393485;19;19932;-65
2023/09/21 07:01:39;;;;;;;3.75;1.13;;;;;;;18.70;70.17;99849.63;7396142;19;19922;-66
2023/09/21 07:04:08;;;;;;;2.40;1.10;;;;;;;18.74;70.29;99849.94;7393618;19;19918;-65
2023/09/21 07:06:37;;;;;;;1.85;1.00;;;;;;;18.75;70.08;99846.97;7398695;19;19918;-65
2023/09/21 07:09:09;;;;;;;3.15;1.35;;;;;;;18.76;69.15;99837.72;7395779;19;19923;-65
2023/09/21 07:11:37;;;;;;;2.80;1.27;;;;;;;18.77;69.88;99838.53;7395812;19;19990;-65
2023/09/21 07:14:26;;;;;;;1.90;1.17;;;;;;;18.79;69.78;99833.63;7396242;19;19986;-66
2023/09/21 07:16:56;;;;;;;3.25;1.60;;;;;;;18.79;69.75;99837.19;7398159;19;19932;-65
2023/09/21 07:19:26;;;;;;;2.97;1.40;;;;;;;18.82;69.25;99836.66;7394392;19;19926;-65
2023/09/21 07:21:55;;;;;;;2.50;1.27;;;;;;;18.83;69.40;99845.69;7392938;19;19919;-65
2023/09/21 07:24:26;;;;;;;1.50;1.08;;;;;;;18.86;69.19;99843.25;7395992;19;19952;-65
2023/09/21 07:27:14;;;;;;;2.75;1.58;;;;;;;18.86;69.32;99837.81;7396145;19;19915;-65
2023/09/21 07:29:43;;;;;;;3.33;1.38;;;;;;;18.89;69.61;99834.59;7397231;19;19941;-66
2023/09/21 07:32:12;;;;;;;2.45;1.23;;;;;;;18.93;69.52;99826.72;7394456;19;19925;-65
2023/09/21 07:34:40;;;;;;;2.33;1.60;;;;;;;18.97;69.36;99833.28;7391893;19;19919;-65
2023/09/21 07:37:12;;;;;;;4.30;1.45;;;;;;;18.99;68.98;99834.69;7394991;19;19939;-66
2023/09/21 07:39:44;;;;;;;3.15;1.50;;;;;;;19.01;68.84;99829.81;7395240;19;19922;-65
2023/09/21 07:42:33;;;;;;;2.83;1.35;;;;;;;19.03;68.82;99827.63;7393517;19;19957;-65
2023/09/21 07:45:02;;;;;;;3.90;1.40;;;;;;;19.07;68.78;99829.84;7393850;19;20261;-65
2023/09/21 07:47:52;;;;;;;3.13;1.27;;;;;;;19.11;68.81;99839.19;7395341;19;19926;-65
2023/09/21 07:50:23;;;;;;;3.15;1.40;;;;;;;19.14;68.57;99839.47;7393254;19;19952;-66
2023/09/21 07:52:53;;;;;;;2.50;1.48;;;;;;;19.16;68.86;99834.56;7395086;19;19926;-65
2023/09/21 07:55:44;;;;;;;3.50;1.27;;;;;;;19.19;68.41;99833.25;7392713;19;20325;-65
2023/09/21 07:58:13;;;;;;;2.50;1.70;;;;;;;19.21;68.58;99839.25;7396145;19;20302;-66
2023/09/21 08:01:01;;;;;;;5.15;1.52;;;;;;;19.22;68.42;99839.00;7393725;19;19917;-66
2023/09/21 08:03:31;;;;;;;5.28;1.30;;;;;;;19.28;68.13;99838.00;7391452;19;19925;-65
2023/09/21 08:06:01;;;;;;;3.22;1.25;;;;;;;19.36;68.29;99847.59;7395685;19;19940;-65
2023/09/21 08:08:30;;;;;;;4.75;1.50;;;;;;;19.44;67.89;99839.78;7397358;19;19922;-65
2023/09/21 08:11:01;;;;;;;4.80;1.15;;;;;;;19.52;67.71;99846.69;7394161;19;19958;-66
2023/09/21 08:13:30;;;;;;;3.67;1.38;;;;;;;19.59;67.02;99857.41;7395722;19;19935;-66
2023/09/21 08:16:19;;;;;;;2.08;1.42;;;;;;;19.63;67.44;99851.13;7393057;19;19918;-66
2023/09/21 08:19:08;;;;;;;4.20;1.50;;;;;;;19.69;67.51;99852.00;7393828;19;19923;-66
2023/09/21 08:21:37;;;;;;;2.65;1.30;;;;;;;19.75;67.27;99859.16;7397526;19;19919;-66
2023/09/21 08:24:06;;;;;;;3.03;1.30;;;;;;;19.79;67.42;99854.81;7395661;19;19922;-66
2023/09/21 08:26:57;;;;;;;3.05;1.40;;;;;;;19.84;67.20;99861.16;7393576;19;19960;-66
2023/09/21 08:29:45;;;;;;;4.57;1.70;;;;;;;19.87;67.00;99863.38;7389271;19;19926;-66
2023/09/21 08:32:15;;;;;;;2.53;1.50;;;;;;;19.88;66.55;99866.94;7392357;19;20341;-66
2023/09/21 08:35:04;;;;;;;3.38;1.40;;;;;;;19.87;66.95;99868.00;7391329;19;19930;-65
2023/09/21 08:37:52;;;;;;;3.10;1.20;;;;;;;19.83;66.98;99862.25;7397208;19;19921;-66
2023/09/21 08:40:24;;;;;;;3.03;1.30;;;;;;;19.78;66.90;99878.59;7399658;19;19955;-65
2023/09/21 08:42:57;;;;;;;3.10;1.40;;;;;;;19.75;66.69;99873.66;7401324;19;19947;-66
2023/09/21 08:45:26;;;;;;;4.22;1.50;;;;;;;19.74;66.62;99871.19;7398294;19;20010;-66
2023/09/21 08:47:55;;;;;;;4.38;2.08;;;;;;;19.73;66.88;99875.00;7397747;19;19935;-66
2023/09/21 08:50:24;;;;;;;1.67;1.25;;;;;;;19.72;67.17;99874.16;7400963;19;20310;-66
2023/09/21 08:52:55;;;;;;;5.32;1.60;;;;;;;19.76;67.00;99879.97;7401972;19;19921;-65
2023/09/21 08:55:27;;;;;;;3.50;1.25;;;;;;;19.79;66.72;99869.31;7400672;19;19918;-66
2023/09/21 08:57:58;;;;;;;3.88;2.05;;;;;;;19.83;66.12;99888.75;7401399;19;19930;-65
2023/09/21 09:00:31;;;;;;;;;;;;;;;19.76;66.62;99882.69;7402716;19;20297;-67
2023/09/21 09:03:20;;;;;;;8.35;1.77;;;;;;;19.88;66.46;99888.78;7396454;19;19931;-66
2023/09/21 09:05:50;;;;;;;6.68;1.63;;;;;;;19.91;66.83;99891.00;7398587;19;19922;-66
2023/09/21 09:08:19;;;;;;;3.92;1.35;;;;;;;19.90;66.60;99887.44;7400270;19;20282;-65
2023/09/21 09:11:08;;;;;;;2.78;1.33;;;;;;;19.88;66.25;99897.00;7398969;19;19929;-65
2023/09/21 09:13:40;;;;;;;3.47;1.27;;;;;;;19.88;66.41;99895.09;7400877;19;19926;-65
2023/09/21 09:16:33;;;;;;;4.60;1.60;;;;;;;19.88;66.54;99897.00;7396011;19;20321;-66
2023/09/21 09:19:05;;;;;;;3.08;1.40;;;;;;;19.85;67.08;99892.84;7400876;19;19923;-65
2023/09/21 09:21:54;;;;;;;5.10;1.50;;;;;;;19.81;67.45;99905.41;7399032;19;19925;-65
2023/09/21 09:24:23;;;;;;;4.68;1.50;;;;;;;19.79;68.14;99902.13;7398234;19;20041;-66
2023/09/21 09:27:11;;;;;;;2.63;1.48;;;;;;;19.76;68.31;99916.28;7399421;19;20077;-66
2023/09/21 09:29:54;;;;;;;7.15;1.80;;;;;;;19.70;68.76;99902.84;7400910;19;19922;-66
2023/09/21 09:32:44;;;;;;;4.35;1.55;;;;;;;19.69;68.93;99904.75;7393865;19;20288;-66
2023/09/21 09:35:33;;;;;;;3.92;1.77;;;;;;;19.65;69.75;99905.53;7396978;19;19922;-65
2023/09/21 09:38:02;;;;;;;5.25;1.70;;;;;;;19.58;70.65;99916.69;7399918;19;19953;-66
2023/09/21 09:40:32;;;;;;;4.97;2.05;;;;;;;19.53;70.76;99915.81;7399240;19;19922;-66
2023/09/21 09:43:01;;;;;;;2.50;1.38;;;;;;;19.47;70.89;99912.19;7395457;19;19923;-65
2023/09/21 09:45:53;;;;;;;2.38;1.45;;;;;;;19.41;72.36;99924.13;7397965;19;19918;-65
2023/09/21 09:48:43;;;;;;;2.67;1.50;;;;;;;19.33;72.75;99925.41;7399937;19;19915;-66
2023/09/21 09:51:16;;;;;;;4.68;1.83;;;;;;;19.26;72.65;99923.97;7399037;19;19918;-65
2023/09/21 09:54:06;;;;;;;2.63;1.55;;;;;;;19.17;73.18;99925.50;7398503;19;19926;-66
2023/09/21 09:56:36;;;;;;;5.22;1.55;;;;;;;19.03;74.84;99928.63;7396990;19;19919;-66
2023/09/21 09:59:07;;;;;;;6.03;1.58;;;;;;;18.96;75.70;99929.91;7399415;19;19929;-66
2023/09/21 10:01:59;;;;;;;3.65;2.25;;;;;;;18.87;76.66;99924.06;7398172;19;19919;-66
2023/09/21 10:04:33;;;;;;;6.50;1.63;;;;;;;18.84;76.44;99929.22;7392982;19;19926;-66
2023/09/21 10:07:23;;;;;;;5.75;1.52;;;;;;;18.74;77.41;99935.38;7390973;19;19919;-66
2023/09/21 10:10:15;;;;;;;6.65;1.65;;;;;;;18.69;78.13;99929.84;7391199;19;19961;-65
2023/09/21 10:13:05;;;;;;;3.67;1.58;;;;;;;18.62;77.60;99937.38;7397273;19;19922;-66
2023/09/21 10:15:34;;;;;;;3.53;1.55;;;;;;;18.55;77.68;99934.81;7397746;19;19927;-65
2023/09/21 10:18:07;;;;;;;3.17;1.40;;;;;;;18.51;79.01;99936.38;7396785;19;20357;-64
2023/09/21 10:20:38;;;;;;;4.25;1.50;;;;;;;18.47;78.49;99942.59;7383203;19;19923;-64
2023/09/21 10:23:09;;;;;;;3.53;2.72;;;;;;;18.45;78.27;99931.94;7386050;19;19930;-64
2023/09/21 10:25:58;;;;;;;3.47;1.50;;;;;;;18.45;78.20;99939.28;7393764;19;20473;-65
2023/09/21 10:28:39;;;;;;;3.28;1.50;;;;;;;18.39;80.15;99935.66;7394349;19;19926;-64
2023/09/21 10:31:25;;;;;;;6.88;2.22;;;;;;;18.36;80.10;99938.06;7384598;19;20052;-64
2023/09/21 10:34:18;;;;;;;6.35;1.50;;;;;;;18.28;80.95;99938.50;7391851;19;19926;-65
2023/09/21 10:36:51;;;;;;;5.43;1.95;;;;;;;18.25;80.26;99944.47;7396898;19;19948;-64
2023/09/21 10:39:28;;;;;;;2.60;1.42;;;;;;;18.19;80.76;99949.00;7398293;19;20043;-64
2023/09/21 10:42:36;;;;;;;4.03;1.50;;;;;;;18.07;81.80;99954.56;7396023;19;19935;-64
2023/09/21 10:45:07;;;;;;;;;;;;;;;17.95;83.61;99940.16;7396791;19;19925;-64
2023/09/21 10:47:56;;;;;;;2.80;1.58;;;;;;;18.08;80.82;99942.56;7397148;19;20286;-64
2023/09/21 10:50:27;;;;;;;3.03;1.67;;;;;;;18.09;81.47;99935.19;7396591;19;19949;-64
2023/09/21 10:52:58;;;;;;;3.28;1.80;;;;;;;18.07;80.96;99938.19;7396710;19;19943;-65
2023/09/21 10:55:26;;;;;;;4.30;1.92;;;;;;;18.06;81.52;99952.06;7391340;19;20571;-64
2023/09/21 10:58:00;;;;;;;5.05;1.80;;;;;;;18.05;82.31;99942.22;7396870;19;20286;-64
2023/09/21 11:00:49;;;;;;;3.05;1.77;;;;;;;18.03;81.77;99942.47;7392618;19;19930;-64
2023/09/21 11:03:18;;;;;;;5.93;2.22;;;;;;;18.03;82.62;99953.38;7392191;19;19922;-64
2023/09/21 11:05:50;;;;;;;3.60;1.95;;;;;;;18.01;83.08;99949.25;7396060;19;20088;-64
2023/09/21 11:08:20;;;;;;;6.88;2.22;;;;;;;17.97;83.41;99959.00;7398443;19;20282;-64
2023/09/21 11:11:08;;;;;;;4.28;1.85;;;;;;;17.95;83.44;99951.06;7394439;19;19926;-64
2023/09/21 11:13:57;;;;;;;3.65;2.08;;;;;;;18.00;84.29;99948.41;7396916;19;19925;-63
2023/09/21 11:16:46;;;;;;;;;;;;;;;17.97;87.11;99937.19;7396869;19;19926;-64
2023/09/21 11:19:35;;;;;;;3.78;1.85;;;;;;;18.04;84.19;99937.84;7395486;19;19911;-64
2023/09/21 11:22:26;;;;;;;4.47;2.20;;;;;;;18.00;85.45;99923.88;7395864;19;19923;-64
2023/09/21 11:25:18;;;;;;;5.35;1.75;;;;;;;17.94;85.03;99916.72;7393453;19;19914;-64
2023/09/21 11:27:46;;;;;;;3.25;1.95;;;;;;;17.94;85.34;99924.91;7393263;19;19929;-65
2023/09/21 11:30:16;;;;;;;4.68;1.98;;;;;;;17.91;86.05;99928.09;7394461;19;19953;-64
2023/09/21 11:32:46;;;;;;;5.15;2.33;;;;;;;17.88;85.69;99934.06;7392467;19;19955;-64
2023/09/21 11:35:17;;;;;;;4.43;2.08;;;;;;;17.86;86.33;99938.13;7393594;19;19926;-63
2023/09/21 11:37:50;;;;;;;6.75;2.60;;;;;;;17.82;86.93;99943.19;7394013;19;19957;-65
2023/09/21 11:40:21;;;;;;;2.28;1.50;;;;;;;17.66;85.05;99927.69;7388431;19;19923;-64
2023/09/21 11:42:51;;;;;;;2.63;0.88;;;;;;;17.56;84.95;99930.22;7392702;19;19926;-64
2023/09/21 11:45:20;;;;;;;3.22;1.83;;;;;;;17.42;84.65;99953.38;7393712;19;19934;-64
2023/09/21 11:47:51;;;;;;;1.55;0.88;;;;;;;17.28;84.65;99944.66;7393754;19;20270;-64
2023/09/21 11:50:25;;;;;;;3.78;1.40;;;;;;;17.19;84.45;99951.56;7392567;19;19930;-64
2023/09/21 11:52:57;;;;;;;2.30;1.10;;;;;;;17.13;85.11;99953.34;7394295;19;20315;-64
2023/09/21 11:55:46;;;;;;;7.57;2.30;;;;;;;17.10;84.74;99953.84;7392557;19;19923;-64
2023/09/21 11:58:16;;;;;;;4.65;1.90;;;;;;;17.14;84.21;99949.56;7395902;19;19948;-64
2023/09/21 12:00:49;;;;;;;2.28;0.90;;;;;;;17.20;84.81;99953.22;7395605;19;20035;-64
2023/09/21 12:03:17;;;;;;;1.38;0.80;;;;;;;17.32;84.15;99945.00;7391472;19;19947;-64
2023/09/21 12:06:06;;;;;;;1.02;0.80;;;;;;;17.47;83.14;99948.00;7389945;19;19983;-64
2023/09/21 12:08:38;;;;;;;2.55;1.10;;;;;;;17.61;83.07;99950.19;7394233;19;19939;-64
2023/09/21 12:11:27;;;;;;;6.13;3.58;;;;;;;17.76;82.52;99944.22;7395157;19;20100;-64
2023/09/21 12:13:56;;;;;;;4.60;1.35;;;;;;;17.90;82.79;99944.72;7399904;19;20587;-63
2023/09/21 12:16:24;;;;;;;2.50;1.50;;;;;;;18.09;82.11;99930.59;7401870;19;19919;-65